Time;durP1;ratioP1;P1;durP2;ratioP2;P2;SDS_P1;SDS_P2;PMS_P1;PMS_P2;Temp;Humidity;BMP_temperature;BMP_pressure;BME280_temperature;BME280_humidity;BME280_pressure;Samples;Min_cycle;Max_cycle;Signal;HPM_P1;HPM_P2
2023/03/13 00:01:20;;;;;;;31.13;6.50;;;9.30;99.90;;;;;;5068929;28;20884;-88
2023/03/13 00:03:46;;;;;;;30.35;6.53;;;9.30;99.90;;;;;;5070053;28;20586;-88
2023/03/13 00:06:13;;;;;;;31.67;6.23;;;9.30;99.90;;;;;;5069913;28;20405;-88
2023/03/13 00:08:39;;;;;;;30.13;6.70;;;9.30;99.90;;;;;;5068775;28;20429;-89
2023/03/13 00:11:06;;;;;;;31.50;6.35;;;9.30;99.90;;;;;;5069846;28;20406;-89
2023/03/13 00:13:32;;;;;;;34.53;6.90;;;9.30;99.90;;;;;;5068814;28;21024;-89
2023/03/13 00:16:04;;;;;;;30.25;6.05;;;9.30;99.90;;;;;;5069799;28;20450;-89
2023/03/13 00:18:29;;;;;;;30.65;6.78;;;9.20;99.90;;;;;;5086101;28;20497;-88
2023/03/13 00:21:03;;;;;;;29.73;6.18;;;9.10;99.90;;;;;;5069592;28;20489;-88
2023/03/13 00:23:29;;;;;;;30.80;5.97;;;9.20;99.90;;;;;;5068613;28;20439;-89
2023/03/13 00:25:57;;;;;;;30.83;6.18;;;9.10;99.90;;;;;;5068682;28;20398;-89
2023/03/13 00:28:22;;;;;;;30.45;6.70;;;9.10;99.90;;;;;;5068022;28;20398;-91
2023/03/13 00:30:48;;;;;;;31.15;6.15;;;9.10;99.90;;;;;;5068270;28;20416;-90
2023/03/13 00:33:14;;;;;;;28.53;6.57;;;9.10;99.90;;;;;;5086178;28;20444;-88
2023/03/13 00:35:40;;;;;;;26.60;5.60;;;9.10;99.90;;;;;;5068642;28;20395;-89
2023/03/13 00:38:05;;;;;;;33.08;7.05;;;9.10;99.90;;;;;;5069421;28;20408;-89
2023/03/13 00:40:31;;;;;;;26.98;7.20;;;9.10;99.90;;;;;;5068444;28;20410;-90
2023/03/13 00:42:56;;;;;;;35.43;7.90;;;9.10;99.90;;;;;;5068648;28;20410;-89
2023/03/13 00:45:22;;;;;;;33.97;6.82;;;9.10;99.90;;;;;;5068759;28;20754;-88
2023/03/13 00:47:48;;;;;;;32.47;7.53;;;9.00;99.90;;;;;;5068238;28;20410;-90
2023/03/13 00:50:14;;;;;;;30.48;7.25;;;9.00;99.90;;;;;;5068678;28;20455;-90
2023/03/13 00:52:40;;;;;;;30.90;7.25;;;9.00;99.90;;;;;;5067641;28;20406;-89
2023/03/13 00:55:06;;;;;;;30.50;6.82;;;9.10;99.90;;;;;;5069280;28;20467;-90
2023/03/13 00:57:36;;;;;;;32.92;7.15;;;9.10;99.90;;;;;;5084652;28;20437;-89
2023/03/13 01:00:05;;;;;;;30.13;6.75;;;9.10;99.90;;;;;;5069090;28;20402;-90
2023/03/13 01:02:31;;;;;;;33.38;6.95;;;9.10;99.90;;;;;;5085481;28;20417;-87
2023/03/13 01:04:56;;;;;;;30.60;7.23;;;9.10;99.90;;;;;;5084946;28;20409;-91
2023/03/13 01:07:22;;;;;;;30.33;6.50;;;9.10;99.90;;;;;;5085203;28;20453;-89
2023/03/13 01:09:48;;;;;;;30.05;7.28;;;9.10;99.90;;;;;;5067716;28;20575;-89
2023/03/13 01:12:13;;;;;;;33.00;6.80;;;9.10;99.90;;;;;;5069012;28;20428;-88
2023/03/13 01:14:39;;;;;;;33.93;6.83;;;9.20;99.90;;;;;;5085078;28;20414;-91
2023/03/13 01:17:05;;;;;;;31.63;7.63;;;9.10;99.90;;;;;;5069311;28;20401;-89
2023/03/13 01:19:30;;;;;;;32.65;7.10;;;9.10;99.90;;;;;;5084523;28;20421;-88
2023/03/13 01:21:56;;;;;;;28.70;6.93;;;9.20;99.90;;;;;;5068525;28;20420;-89
2023/03/13 01:24:23;;;;;;;28.13;6.57;;;9.10;99.90;;;;;;5068943;28;20402;-91
2023/03/13 01:26:48;;;;;;;28.92;7.25;;;9.20;99.90;;;;;;5084734;28;20924;-90
2023/03/13 01:29:14;;;;;;;31.23;7.03;;;9.20;99.90;;;;;;5068479;28;20426;-89
2023/03/13 01:31:40;;;;;;;27.75;6.53;;;9.20;99.90;;;;;;5067651;28;20799;-90
2023/03/13 01:34:06;;;;;;;27.57;7.40;;;9.30;99.90;;;;;;5068807;28;20394;-89
2023/03/13 01:36:35;;;;;;;28.17;7.38;;;9.20;99.90;;;;;;5067594;28;20398;-88
2023/03/13 01:39:00;;;;;;;31.30;7.22;;;9.20;99.90;;;;;;5086539;28;20764;-89
2023/03/13 01:41:28;;;;;;;30.80;7.22;;;9.30;99.90;;;;;;5089096;28;20473;-90
2023/03/13 01:43:54;;;;;;;27.25;7.15;;;9.20;99.90;;;;;;5088604;28;20485;-87
2023/03/13 01:46:27;;;;;;;34.28;8.00;;;9.30;99.90;;;;;;5072436;28;20412;-88
2023/03/13 01:49:08;;;;;;;28.33;7.75;;;9.30;99.90;;;;;;5071630;28;20433;-89
2023/03/13 01:51:46;;;;;;;29.42;7.55;;;9.30;99.90;;;;;;5073167;28;20493;-89
2023/03/13 01:54:19;;;;;;;28.55;7.07;;;9.30;99.90;;;;;;5071785;28;20417;-89
2023/03/13 01:56:50;;;;;;;34.17;8.70;;;9.30;99.90;;;;;;5071929;28;20958;-90
2023/03/13 01:59:21;;;;;;;35.35;8.32;;;9.30;99.90;;;;;;5072397;28;20867;-90
2023/03/13 02:01:49;;;;;;;31.92;8.25;;;9.40;99.90;;;;;;5071284;28;20394;-89
2023/03/13 02:04:19;;;;;;;33.65;9.15;;;9.20;99.90;;;;;;5072711;28;20481;-90
2023/03/13 02:06:48;;;;;;;34.88;9.82;;;9.20;99.90;;;;;;5071536;28;20414;-89
2023/03/13 02:09:18;;;;;;;37.45;10.45;;;9.20;99.90;;;;;;5072497;28;20482;-90
2023/03/13 02:11:55;;;;;;;30.80;9.38;;;9.30;99.90;;;;;;5088846;28;20402;-90
2023/03/13 02:14:24;;;;;;;37.05;11.05;;;9.20;99.90;;;;;;5071032;28;20435;-91
2023/03/13 02:16:51;;;;;;;36.97;12.13;;;9.40;99.90;;;;;;5072581;28;20796;-90
2023/03/13 02:19:36;;;;;;;39.13;12.40;;;9.10;99.90;;;;;;5071764;28;20510;-88
2023/03/13 02:22:13;;;;;;;33.42;11.80;;;9.10;99.90;;;;;;5072459;28;20406;-91
2023/03/13 02:24:51;;;;;;;37.00;12.00;;;9.10;99.90;;;;;;5072259;28;20410;-88
2023/03/13 02:27:17;;;;;;;29.52;10.60;;;9.10;99.90;;;;;;5071395;28;20494;-89
2023/03/13 02:29:43;;;;;;;29.77;10.63;;;9.10;99.90;;;;;;5072110;28;20516;-90
2023/03/13 02:32:09;;;;;;;22.77;8.60;;;9.10;99.90;;;;;;5070852;28;20441;-91
2023/03/13 02:34:38;;;;;;;26.20;9.68;;;9.10;99.90;;;;;;5072380;28;20398;-90
2023/03/13 02:37:09;;;;;;;18.90;7.38;;;9.10;99.90;;;;;;5071047;28;20402;-90
2023/03/13 02:39:37;;;;;;;25.13;9.20;;;9.00;99.90;;;;;;5072108;28;20402;-91
2023/03/13 02:42:04;;;;;;;25.73;9.45;;;9.10;99.90;;;;;;5072135;28;20402;-90
2023/03/13 02:44:30;;;;;;;27.98;10.13;;;9.10;99.90;;;;;;5071485;28;20738;-90
2023/03/13 02:46:55;;;;;;;18.83;7.93;;;9.20;99.90;;;;;;5072083;28;20424;-89
2023/03/13 02:49:27;;;;;;;18.83;8.50;;;9.20;99.90;;;;;;5070556;28;20520;-90
2023/03/13 02:51:55;;;;;;;15.88;7.20;;;9.20;99.90;;;;;;5070970;28;20418;-90
2023/03/13 02:54:25;;;;;;;18.45;7.35;;;9.20;99.90;;;;;;5071009;28;20402;-90
2023/03/13 02:56:56;;;;;;;15.65;7.80;;;9.20;99.90;;;;;;5088863;28;20469;-90
2023/03/13 02:59:22;;;;;;;13.95;6.85;;;9.30;99.90;;;;;;5070959;28;21029;-89
2023/03/13 03:01:51;;;;;;;14.82;6.75;;;9.20;99.90;;;;;;5070769;28;20442;-91
2023/03/13 03:04:26;;;;;;;14.00;7.13;;;9.30;99.90;;;;;;5087893;28;20431;-89
2023/03/13 03:06:52;;;;;;;17.15;8.38;;;9.30;99.90;;;;;;5087088;28;20418;-89
2023/03/13 03:09:21;;;;;;;13.95;6.80;;;9.40;99.90;;;;;;5071591;28;20436;-91
2023/03/13 03:11:47;;;;;;;11.45;7.18;;;9.30;99.90;;;;;;5070155;28;20492;-89
2023/03/13 03:14:12;;;;;;;11.85;6.97;;;9.30;99.90;;;;;;5070801;28;20485;-90
2023/03/13 03:16:38;;;;;;;10.35;6.45;;;9.40;99.90;;;;;;5070147;28;20897;-90
2023/03/13 03:19:05;;;;;;;14.20;7.82;;;9.40;99.90;;;;;;5069712;28;20410;-90
2023/03/13 03:21:32;;;;;;;11.87;7.30;;;9.40;99.90;;;;;;5070398;28;20491;-88
2023/03/13 03:23:57;;;;;;;14.07;7.72;;;9.40;99.90;;;;;;5068998;28;20420;-89
2023/03/13 03:26:23;;;;;;;13.75;8.43;;;9.50;99.90;;;;;;5070309;28;20395;-89
2023/03/13 03:28:49;;;;;;;10.93;6.88;;;9.50;99.90;;;;;;5069772;28;20928;-89
2023/03/13 03:31:15;;;;;;;14.50;7.80;;;9.50;99.90;;;;;;5071447;28;20756;-90
2023/03/13 03:33:42;;;;;;;13.55;7.95;;;9.50;99.90;;;;;;5070137;28;20396;-90
2023/03/13 03:36:13;;;;;;;11.25;7.90;;;9.60;99.90;;;;;;5070396;28;20432;-91
2023/03/13 03:38:40;;;;;;;13.20;7.97;;;9.60;99.90;;;;;;5070510;28;20410;-89
2023/03/13 03:41:07;;;;;;;10.85;6.88;;;9.60;99.90;;;;;;5069420;28;20401;-89
2023/03/13 03:43:33;;;;;;;7.93;5.82;;;9.60;99.90;;;;;;5070450;28;20421;-90
2023/03/13 03:45:58;;;;;;;11.95;6.40;;;9.60;99.90;;;;;;5069166;28;20426;-90
2023/03/13 03:48:24;;;;;;;8.37;5.73;;;9.60;99.90;;;;;;5070575;28;20983;-90
2023/03/13 03:50:50;;;;;;;11.00;7.30;;;9.70;99.90;;;;;;5069472;28;20402;-90
2023/03/13 03:53:15;;;;;;;12.48;7.43;;;9.70;99.90;;;;;;5070761;28;20441;-89
2023/03/13 03:55:41;;;;;;;10.80;7.17;;;9.70;99.90;;;;;;5069860;28;20390;-90
2023/03/13 03:58:07;;;;;;;11.17;7.33;;;9.70;99.90;;;;;;5069281;28;20479;-88
2023/03/13 04:00:32;;;;;;;13.23;7.68;;;9.80;99.90;;;;;;5070254;28;20429;-89
2023/03/13 04:02:58;;;;;;;12.30;7.33;;;9.90;99.90;;;;;;5069398;28;20452;-89
2023/03/13 04:05:24;;;;;;;11.93;7.70;;;9.90;99.90;;;;;;5070227;28;20909;-90
2023/03/13 04:07:50;;;;;;;11.50;7.78;;;9.90;99.90;;;;;;5085963;28;20471;-89
2023/03/13 04:10:16;;;;;;;14.00;9.02;;;10.20;99.90;;;;;;5069868;28;20473;-89
2023/03/13 04:12:41;;;;;;;16.10;11.27;;;10.00;99.90;;;;;;5068962;28;20441;-89
2023/03/13 04:15:07;;;;;;;18.92;12.52;;;10.10;99.90;;;;;;5069485;28;20394;-89
2023/03/13 04:17:33;;;;;;;19.48;12.52;;;10.20;99.90;;;;;;5086596;28;20932;-89
2023/03/13 04:19:59;;;;;;;19.98;13.25;;;10.30;99.90;;;;;;5069023;28;20413;-89
2023/03/13 04:22:25;;;;;;;22.73;14.43;;;10.30;99.90;;;;;;5069471;28;20455;-89
2023/03/13 04:24:51;;;;;;;24.87;16.27;;;10.40;99.90;;;;;;5068771;28;20409;-89
2023/03/13 04:27:17;;;;;;;24.37;14.60;;;10.40;99.90;;;;;;5086619;28;20443;-90
2023/03/13 04:29:42;;;;;;;25.20;16.70;;;10.50;99.90;;;;;;5085892;28;20430;-90
2023/03/13 04:32:08;;;;;;;28.35;16.67;;;10.50;99.90;;;;;;5069807;28;20457;-88
2023/03/13 04:34:34;;;;;;;27.38;17.20;;;10.70;99.90;;;;;;5068930;28;20410;-90
2023/03/13 04:36:59;;;;;;;31.93;18.33;;;10.60;99.90;;;;;;5068859;28;20904;-90
2023/03/13 04:39:25;;;;;;;24.00;16.73;;;10.60;99.90;;;;;;5086286;28;20403;-88
2023/03/13 04:41:52;;;;;;;27.02;16.45;;;10.80;99.90;;;;;;5068041;28;20808;-91
2023/03/13 04:44:17;;;;;;;20.67;13.10;;;10.60;99.90;;;;;;5069796;28;20394;-91
2023/03/13 04:46:43;;;;;;;21.55;13.13;;;10.60;99.90;;;;;;5085240;28;20578;-90
2023/03/13 04:49:08;;;;;;;23.53;14.60;;;10.70;99.90;;;;;;5069889;28;20437;-90
2023/03/13 04:51:34;;;;;;;24.43;14.20;;;10.60;99.90;;;;;;5069237;28;20444;-89
2023/03/13 04:54:00;;;;;;;23.50;14.68;;;10.60;99.90;;;;;;5069770;28;20447;-91
2023/03/13 04:56:27;;;;;;;25.40;15.87;;;10.60;99.90;;;;;;5068838;28;20406;-91
2023/03/13 04:58:52;;;;;;;28.03;16.67;;;10.80;99.90;;;;;;5068345;28;21049;-89
2023/03/13 05:01:18;;;;;;;26.57;15.43;;;10.70;99.90;;;;;;5069156;28;20406;-89
2023/03/13 05:03:44;;;;;;;25.77;14.63;;;10.70;99.90;;;;;;5068048;28;20402;-89
2023/03/13 05:06:10;;;;;;;29.38;17.05;;;10.80;99.90;;;;;;5069401;28;20769;-86
2023/03/13 05:08:36;;;;;;;26.10;16.77;;;10.70;99.90;;;;;;5068269;28;20498;-89
2023/03/13 05:11:02;;;;;;;25.13;15.35;;;10.80;99.90;;;;;;5068988;28;20501;-90
2023/03/13 05:13:28;;;;;;;25.30;13.15;;;10.80;99.90;;;;;;5068205;28;20492;-88
2023/03/13 05:15:53;;;;;;;20.45;11.95;;;10.90;99.90;;;;;;5068590;28;20484;-90
2023/03/13 05:18:19;;;;;;;20.80;11.63;;;11.00;99.90;;;;;;5069459;28;20909;-89
2023/03/13 05:20:44;;;;;;;17.55;9.38;;;11.00;99.90;;;;;;5067646;28;20408;-92
2023/03/13 05:23:10;;;;;;;17.37;9.07;;;11.10;99.90;;;;;;5069075;28;20401;-90
2023/03/13 05:25:36;;;;;;;15.93;8.32;;;11.30;99.90;;;;;;5067944;28;20409;-88
2023/03/13 05:28:01;;;;;;;16.90;8.93;;;11.20;99.90;;;;;;5069621;28;20410;-89
2023/03/13 05:30:27;;;;;;;18.67;9.90;;;11.30;99.90;;;;;;5067914;28;20430;-90
2023/03/13 05:32:53;;;;;;;18.40;10.45;;;11.30;99.90;;;;;;5085907;28;20417;-89
2023/03/13 05:35:19;;;;;;;18.58;10.93;;;11.30;99.90;;;;;;5084325;28;20441;-91
2023/03/13 05:37:45;;;;;;;17.13;10.70;;;11.40;99.90;;;;;;5084121;28;20497;-90
2023/03/13 05:40:11;;;;;;;22.77;11.10;;;11.40;99.90;;;;;;5076271;28;20853;-89
2023/03/13 05:42:38;;;;;;;17.02;8.85;;;11.40;99.90;;;;;;5103863;28;20400;-89
2023/03/13 05:45:03;;;;;;;17.98;9.48;;;11.40;99.90;;;;;;5103206;28;20404;-91
2023/03/13 05:47:29;;;;;;;21.38;10.68;;;11.40;99.90;;;;;;5077773;28;20906;-89
2023/03/13 05:49:55;;;;;;;17.10;8.37;;;11.40;99.90;;;;;;5073179;28;20433;-89
2023/03/13 05:52:21;;;;;;;23.45;10.32;;;11.40;99.90;;;;;;5072673;28;20988;-88
2023/03/13 05:54:46;;;;;;;26.15;11.93;;;11.40;99.90;;;;;;5067872;28;20402;-91
2023/03/13 05:57:12;;;;;;;24.83;10.90;;;11.40;99.90;;;;;;5068780;28;20760;-89
2023/03/13 05:59:38;;;;;;;23.70;11.10;;;11.40;99.90;;;;;;5067008;28;20409;-90
2023/03/13 06:02:04;;;;;;;25.05;12.50;;;11.40;99.90;;;;;;5067650;28;20490;-89
2023/03/13 06:04:29;;;;;;;26.30;11.40;;;11.40;99.90;;;;;;5067640;28;20978;-89
2023/03/13 06:06:55;;;;;;;25.87;10.80;;;11.40;99.90;;;;;;5067215;28;20449;-88
2023/03/13 06:09:21;;;;;;;22.33;10.00;;;11.20;99.90;;;;;;5067142;28;20600;-88
2023/03/13 06:11:46;;;;;;;23.98;8.18;;;11.30;99.90;;;;;;5084616;28;20412;-88
2023/03/13 06:14:12;;;;;;;23.58;8.27;;;11.40;99.90;;;;;;5067346;28;20402;-88
2023/03/13 06:16:38;;;;;;;21.13;7.60;;;11.40;99.90;;;;;;5083705;28;20413;-90
2023/03/13 06:19:03;;;;;;;21.00;6.85;;;11.40;99.90;;;;;;5068272;28;20438;-89
2023/03/13 06:21:29;;;;;;;18.55;6.97;;;11.40;99.90;;;;;;5066714;28;20413;-88
2023/03/13 06:23:55;;;;;;;18.77;5.73;;;11.50;99.90;;;;;;5085145;28;20406;-90
2023/03/13 06:26:23;;;;;;;17.92;5.60;;;11.60;99.90;;;;;;5069843;28;20394;-89
2023/03/13 06:28:49;;;;;;;16.55;5.20;;;11.50;99.90;;;;;;5071557;28;20406;-88
2023/03/13 06:31:14;;;;;;;18.58;5.70;;;11.50;99.90;;;;;;5071371;28;20475;-87
2023/03/13 06:33:40;;;;;;;17.45;5.45;;;11.70;99.90;;;;;;5071259;28;20398;-88
2023/03/13 06:36:06;;;;;;;15.98;4.30;;;11.60;99.90;;;;;;5071832;28;20410;-90
2023/03/13 06:38:33;;;;;;;16.80;5.17;;;11.60;99.90;;;;;;5070909;28;20405;-90
2023/03/13 06:40:58;;;;;;;16.67;4.78;;;11.60;99.90;;;;;;5088540;28;20433;-89
2023/03/13 06:43:24;;;;;;;12.55;3.83;;;11.70;99.90;;;;;;5070449;28;20830;-88
2023/03/13 06:45:50;;;;;;;14.55;4.45;;;11.60;99.90;;;;;;5071305;28;20400;-91
2023/03/13 06:48:16;;;;;;;14.77;4.13;;;11.60;99.90;;;;;;5070998;28;20485;-91
2023/03/13 06:50:42;;;;;;;16.38;3.92;;;11.50;99.90;;;;;;5087964;28;20465;-91
2023/03/13 06:53:17;;;;;;;13.97;4.13;;;11.60;99.90;;;;;;5071906;28;20420;-89
2023/03/13 06:55:43;;;;;;;13.80;3.90;;;11.60;99.90;;;;;;5070979;28;20430;-88
2023/03/13 06:58:09;;;;;;;13.32;3.90;;;11.60;99.90;;;;;;5071390;28;20444;-88
2023/03/13 07:00:34;;;;;;;13.53;3.93;;;11.80;99.90;;;;;;5070370;28;20398;-88
2023/03/13 07:03:00;;;;;;;12.48;3.67;;;11.80;99.90;;;;;;5071350;28;20889;-88
2023/03/13 07:05:26;;;;;;;13.65;3.30;;;11.80;99.90;;;;;;5070217;28;20430;-90
2023/03/13 07:07:51;;;;;;;15.83;3.70;;;11.80;99.90;;;;;;5071084;28;20402;-92
2023/03/13 07:10:17;;;;;;;14.60;3.67;;;11.90;99.90;;;;;;5087391;28;20430;-89
2023/03/13 07:12:43;;;;;;;14.02;4.03;;;11.90;99.90;;;;;;5070177;28;20427;-91
2023/03/13 07:15:09;;;;;;;12.23;3.67;;;12.00;99.90;;;;;;5070733;28;20401;-88
2023/03/13 07:17:36;;;;;;;13.63;4.20;;;12.00;99.90;;;;;;5070181;28;20401;-91
2023/03/13 07:20:09;;;;;;;14.93;4.00;;;12.00;99.90;;;;;;5070921;28;20499;-91
2023/03/13 07:22:35;;;;;;;15.85;3.90;;;11.90;99.90;;;;;;5070371;28;20401;-91
2023/03/13 07:25:01;;;;;;;16.17;4.53;;;11.90;99.90;;;;;;5088016;28;20390;-89
2023/03/13 07:27:26;;;;;;;10.97;3.33;;;11.90;99.90;;;;;;5086718;28;20460;-91
2023/03/13 07:29:52;;;;;;;10.27;3.30;;;12.00;99.90;;;;;;5070267;28;20579;-89
2023/03/13 07:32:18;;;;;;;12.80;3.25;;;11.90;99.90;;;;;;5087288;28;20416;-89
2023/03/13 07:34:43;;;;;;;13.10;3.47;;;11.90;99.90;;;;;;5069176;28;20391;-90
2023/03/13 07:37:13;;;;;;;11.77;3.58;;;12.20;99.90;;;;;;5069973;28;20425;-88
2023/03/13 07:39:39;;;;;;;9.93;3.08;;;11.90;99.90;;;;;;5069297;28;20438;-91
2023/03/13 07:42:05;;;;;;;14.47;3.33;;;12.00;99.90;;;;;;5070362;28;20422;-90
2023/03/13 07:44:30;;;;;;;10.60;3.17;;;12.00;99.90;;;;;;5069659;28;20796;-90
2023/03/13 07:46:59;;;;;;;10.27;3.27;;;12.00;99.90;;;;;;5070068;28;20405;-89
2023/03/13 07:49:25;;;;;;;11.02;3.03;;;12.00;99.90;;;;;;5086762;28;20426;-90
2023/03/13 07:51:51;;;;;;;12.55;2.92;;;12.00;99.90;;;;;;5069961;28;20406;-90
2023/03/13 07:54:16;;;;;;;13.03;3.37;;;12.10;99.90;;;;;;5070381;28;20413;-91
2023/03/13 07:56:42;;;;;;;11.52;3.60;;;12.10;99.90;;;;;;5068875;28;20416;-91
2023/03/13 07:59:08;;;;;;;10.27;2.60;;;12.20;99.90;;;;;;5070455;28;20402;-91
2023/03/13 08:01:34;;;;;;;9.13;3.05;;;12.30;99.90;;;;;;5069904;28;21117;-91
2023/03/13 08:04:00;;;;;;;10.35;3.00;;;12.20;99.90;;;;;;5070619;28;20757;-89
2023/03/13 08:06:28;;;;;;;11.35;2.40;;;12.40;99.90;;;;;;5070310;28;20408;-90
2023/03/13 08:08:57;;;;;;;9.25;2.85;;;12.20;99.90;;;;;;5069417;28;20456;-89
2023/03/13 08:11:24;;;;;;;9.00;2.60;;;12.40;99.90;;;;;;5069928;28;20398;-89
2023/03/13 08:13:51;;;;;;;10.00;2.25;;;12.00;99.90;;;;;;5085626;28;20397;-89
2023/03/13 08:16:19;;;;;;;9.80;1.90;;;12.30;99.90;;;;;;5070267;28;20448;-91
2023/03/13 08:18:47;;;;;;;7.88;2.15;;;12.30;99.90;;;;;;5069596;28;20406;-90
2023/03/13 08:21:19;;;;;;;9.50;1.80;;;12.30;99.90;;;;;;5070274;28;20881;-87
2023/03/13 08:23:46;;;;;;;9.88;1.80;;;12.40;99.90;;;;;;5069260;28;20410;-91
2023/03/13 08:26:17;;;;;;;8.20;1.48;;;12.40;99.90;;;;;;5086187;28;20439;-89
2023/03/13 08:28:44;;;;;;;7.95;1.77;;;12.50;99.90;;;;;;5069250;28;20496;-90
2023/03/13 08:31:14;;;;;;;8.38;1.70;;;12.60;99.90;;;;;;5068360;28;20399;-87
2023/03/13 08:33:41;;;;;;;8.02;1.90;;;12.70;99.90;;;;;;5069799;28;20402;-90
2023/03/13 08:36:16;;;;;;;6.35;1.58;;;12.80;99.90;;;;;;5068575;28;20486;-91
2023/03/13 08:38:43;;;;;;;8.02;1.50;;;13.10;99.90;;;;;;5069487;28;20414;-90
2023/03/13 08:41:09;;;;;;;8.18;1.63;;;12.90;99.90;;;;;;5069313;28;20915;-90
2023/03/13 08:43:35;;;;;;;8.25;1.33;;;12.90;99.90;;;;;;5068792;28;21062;-91
2023/03/13 08:46:01;;;;;;;7.63;1.20;;;13.00;99.90;;;;;;5086209;28;20442;-90
2023/03/13 08:48:27;;;;;;;8.95;1.40;;;13.00;99.90;;;;;;5084431;28;20414;-92
2023/03/13 08:51:06;;;;;;;8.55;1.77;;;13.10;99.90;;;;;;5069007;28;20434;-91
2023/03/13 08:53:33;;;;;;;6.60;1.20;;;13.20;99.90;;;;;;5068487;28;20434;-90
2023/03/13 08:55:59;;;;;;;6.78;1.10;;;13.40;99.90;;;;;;5069232;28;20785;-91
2023/03/13 08:58:25;;;;;;;6.60;1.00;;;13.20;99.90;;;;;;5068680;28;20406;-89
2023/03/13 09:00:50;;;;;;;5.45;1.05;;;13.30;99.90;;;;;;5068836;28;20493;-88
2023/03/13 09:03:16;;;;;;;5.00;0.95;;;13.30;99.90;;;;;;5085492;28;20402;-91
2023/03/13 09:05:42;;;;;;;6.78;1.25;;;13.20;99.90;;;;;;5067966;28;20402;-91
2023/03/13 09:08:08;;;;;;;6.55;0.90;;;13.20;99.90;;;;;;5068548;28;20436;-93
2023/03/13 09:10:34;;;;;;;6.30;0.90;;;13.20;99.90;;;;;;5067737;28;20426;-91
2023/03/13 09:13:01;;;;;;;6.63;1.10;;;13.10;99.90;;;;;;5069375;28;20401;-91
2023/03/13 09:15:26;;;;;;;7.15;1.30;;;13.20;99.90;;;;;;5068239;28;20489;-91
2023/03/13 09:17:52;;;;;;;7.72;1.33;;;13.20;99.90;;;;;;5069667;28;20489;-90
2023/03/13 09:20:18;;;;;;;7.40;1.20;;;13.20;99.90;;;;;;5068449;28;20398;-89
2023/03/13 09:22:47;;;;;;;8.15;1.48;;;13.30;99.90;;;;;;5067948;28;20406;-90
2023/03/13 09:25:13;;;;;;;9.63;1.70;;;13.20;99.90;;;;;;5069152;28;21000;-90
2023/03/13 09:27:39;;;;;;;7.40;1.67;;;13.30;99.90;;;;;;5068445;28;20914;-89
2023/03/13 09:30:05;;;;;;;9.43;1.77;;;13.10;99.90;;;;;;5068972;28;20437;-90
2023/03/13 09:32:31;;;;;;;12.05;2.03;;;13.10;99.90;;;;;;5067145;28;20406;-88
2023/03/13 09:34:58;;;;;;;9.13;1.40;;;13.10;99.90;;;;;;5085664;28;20497;-88
2023/03/13 09:37:24;;;;;;;12.93;2.53;;;13.00;99.90;;;;;;5085716;28;20481;-88
2023/03/13 09:39:50;;;;;;;10.43;1.93;;;12.70;99.90;;;;;;5068162;28;20920;-90
2023/03/13 09:42:17;;;;;;;11.07;2.03;;;12.50;99.90;;;;;;5068920;28;20516;-91
2023/03/13 09:44:54;;;;;;;11.43;2.27;;;12.40;99.90;;;;;;5067676;28;20509;-89
2023/03/13 09:47:28;;;;;;;12.02;2.10;;;12.40;99.90;;;;;;5085410;28;20405;-91
2023/03/13 09:50:09;;;;;;;10.30;1.75;;;12.50;99.90;;;;;;5067875;28;20856;-88
2023/03/13 09:52:39;;;;;;;10.07;2.10;;;12.70;99.90;;;;;;5068847;28;20398;-90
2023/03/13 09:55:29;;;;;;;9.65;1.90;;;12.90;99.90;;;;;;5084932;28;20394;-89
2023/03/13 09:58:03;;;;;;;10.07;2.03;;;13.10;99.90;;;;;;5084278;28;20406;-89
2023/03/13 10:00:37;;;;;;;10.88;1.88;;;13.40;99.90;;;;;;5087004;28;20398;-90
2023/03/13 10:03:17;;;;;;;9.27;1.92;;;13.70;99.90;;;;;;5088315;28;20405;-89
2023/03/13 10:05:47;;;;;;;10.52;1.75;;;13.90;99.90;;;;;;5071909;28;20500;-90
2023/03/13 10:08:21;;;;;;;8.35;1.73;;;14.20;99.90;;;;;;5071914;28;20414;-90
2023/03/13 10:11:00;;;;;;;10.00;2.03;;;14.50;99.90;;;;;;5070880;28;20793;-91
2023/03/13 10:13:45;;;;;;;10.05;1.95;;;14.80;99.90;;;;;;5072213;28;20412;-89
2023/03/13 10:16:16;;;;;;;11.20;2.00;;;15.00;99.90;;;;;;5088637;28;20407;-88
2023/03/13 10:18:51;;;;;;;10.65;2.03;;;15.40;99.50;;;;;;5088680;28;20441;-89
2023/03/13 10:21:20;;;;;;;13.90;2.45;;;15.70;99.10;;;;;;5089220;28;21012;-90
2023/03/13 10:24:13;;;;;;;12.50;2.33;;;16.00;96.60;;;;;;5070735;28;20406;-88
2023/03/13 10:26:38;;;;;;;12.75;2.25;;;15.80;95.20;;;;;;5071181;28;20402;-90
2023/03/13 10:29:16;;;;;;;11.77;2.58;;;15.90;94.20;;;;;;5070395;28;20762;-89
2023/03/13 10:31:51;;;;;;;14.38;2.38;;;15.80;93.80;;;;;;5070574;28;20418;-88
2023/03/13 10:34:16;;;;;;;12.30;2.40;;;15.80;93.10;;;;;;5071236;28;20955;-87
2023/03/13 10:36:45;;;;;;;13.90;2.57;;;15.70;92.30;;;;;;5069720;28;20501;-87
2023/03/13 10:39:17;;;;;;;15.70;2.17;;;15.60;91.10;;;;;;5071378;28;20467;-89
2023/03/13 10:41:43;;;;;;;12.65;2.45;;;15.50;91.60;;;;;;5070204;28;20413;-90
2023/03/13 10:44:15;;;;;;;15.52;2.58;;;15.20;91.80;;;;;;5088292;28;20398;-89
2023/03/13 10:46:44;;;;;;;15.25;2.75;;;15.40;91.60;;;;;;5070818;28;20402;-90
2023/03/13 10:49:20;;;;;;;14.52;2.88;;;15.50;92.10;;;;;;5070739;28;20433;-89
2023/03/13 10:51:49;;;;;;;14.50;2.95;;;15.60;91.40;;;;;;5071029;28;20414;-89
2023/03/13 10:54:25;;;;;;;15.07;2.45;;;15.70;90.30;;;;;;5070488;28;20402;-91
2023/03/13 10:57:06;;;;;;;16.43;3.10;;;15.80;90.60;;;;;;5071951;28;20410;-89
2023/03/13 10:59:31;;;;;;;14.30;2.85;;;16.10;91.90;;;;;;5070878;28;20795;-89
2023/03/13 11:02:00;;;;;;;13.45;2.50;;;16.00;90.40;;;;;;5074583;28;20453;-88
2023/03/13 11:04:30;;;;;;;15.10;2.95;;;16.10;89.50;;;;;;5083694;28;20452;-89
2023/03/13 11:07:20;;;;;;;12.67;2.43;;;16.10;89.50;;;;;;5065319;28;20406;-91
2023/03/13 11:10:15;;;;;;;13.00;2.25;;;16.10;88.00;;;;;;5090516;28;21540;-89
2023/03/13 11:12:50;;;;;;;12.00;2.20;;;16.20;87.80;;;;;;5100534;28;20492;-88
2023/03/13 11:15:24;;;;;;;12.93;2.50;;;16.00;87.70;;;;;;5097375;28;21061;-90
2023/03/13 11:18:18;;;;;;;12.57;1.95;;;16.00;86.90;;;;;;5076247;28;20460;-90
2023/03/13 11:20:45;;;;;;;11.48;2.42;;;16.10;87.50;;;;;;5086883;28;20409;-89
2023/03/13 11:23:26;;;;;;;12.63;1.98;;;16.20;89.10;;;;;;5070522;28;20424;-89
2023/03/13 11:26:34;;;;;;;12.75;2.00;;;16.10;85.70;;;;;;5070133;28;20475;-89
2023/03/13 11:29:22;;;;;;;13.10;2.20;;;16.10;85.70;;;;;;5065812;28;20537;-86
2023/03/13 11:31:53;;;;;;;11.50;2.05;;;15.80;87.30;;;;;;5069927;28;20489;-91
2023/03/13 11:34:22;;;;;;;14.02;2.30;;;15.60;89.70;;;;;;5077927;28;20400;-88
2023/03/13 11:37:08;;;;;;;10.25;1.77;;;15.50;89.80;;;;;;5104997;28;20405;-91
2023/03/13 11:40:08;;;;;;;9.95;1.65;;;15.30;90.10;;;;;;5090926;28;20447;-90
2023/03/13 11:42:48;;;;;;;12.00;2.00;;;15.30;90.40;;;;;;5089696;28;20415;-90
2023/03/13 11:45:45;;;;;;;11.10;1.63;;;15.30;86.00;;;;;;5090313;28;20487;-88
2023/03/13 11:48:34;;;;;;;10.65;1.70;;;15.20;86.80;;;;;;5090571;28;20809;-90
2023/03/13 11:51:26;;;;;;;15.02;2.33;;;15.10;85.00;;;;;;5088984;28;20842;-89
2023/03/13 11:54:05;;;;;;;13.43;2.67;;;15.10;85.00;;;;;;5075828;28;20513;-90
2023/03/13 11:56:55;;;;;;;13.10;2.70;;;15.00;85.70;;;;;;5090302;28;20405;-90
2023/03/13 11:59:29;;;;;;;13.40;2.50;;;15.10;85.70;;;;;;5105780;28;20935;-88
2023/03/13 12:02:16;;;;;;;13.88;2.22;;;15.10;85.20;;;;;;5090719;28;20892;-89
2023/03/13 12:04:54;;;;;;;15.35;2.63;;;15.20;84.80;;;;;;5090113;28;20475;-88
2023/03/13 12:07:43;;;;;;;11.60;2.15;;;15.40;85.40;;;;;;5106275;28;20420;-90
2023/03/13 12:10:16;;;;;;;14.38;2.65;;;15.60;84.60;;;;;;5089865;28;20436;-88
2023/03/13 12:12:48;;;;;;;11.43;2.00;;;15.60;82.70;;;;;;5089076;28;20494;-90
2023/03/13 12:15:20;;;;;;;12.27;2.40;;;15.60;83.30;;;;;;5089739;28;21014;-89
2023/03/13 12:17:48;;;;;;;14.35;2.53;;;15.70;83.70;;;;;;5089351;28;20414;-88
2023/03/13 12:20:25;;;;;;;14.25;2.60;;;15.70;80.00;;;;;;5089112;28;20400;-89
2023/03/13 12:23:15;;;;;;;15.77;2.67;;;15.50;79.20;;;;;;5106141;28;20459;-89
2023/03/13 12:26:10;;;;;;;16.67;3.00;;;15.20;78.50;;;;;;5089040;28;20467;-89
2023/03/13 12:28:49;;;;;;;14.30;2.60;;;15.10;79.40;;;;;;5089096;28;20409;-90
2023/03/13 12:31:26;;;;;;;16.25;3.25;;;15.00;81.00;;;;;;5089617;28;20926;-90
2023/03/13 12:34:21;;;;;;;16.23;2.97;;;14.90;82.80;;;;;;5088115;28;20907;-90
2023/03/13 12:37:21;;;;;;;15.38;2.53;;;14.70;83.10;;;;;;5089454;28;20779;-89
2023/03/13 12:40:11;;;;;;;15.43;2.53;;;14.60;82.80;;;;;;5092214;28;20436;-90
2023/03/13 12:43:13;;;;;;;17.08;2.80;;;14.80;82.90;;;;;;5088640;28;20416;-88
2023/03/13 12:45:55;;;;;;;17.80;3.55;;;14.70;84.90;;;;;;5057488;28;21206;-89
2023/03/13 12:48:30;;;;;;;18.55;3.65;;;14.80;82.30;;;;;;5089704;28;20545;-90
2023/03/13 12:51:17;;;;;;;15.40;3.17;;;14.70;81.80;;;;;;5088211;28;21184;-89
2023/03/13 12:54:07;;;;;;;14.90;2.50;;;14.70;82.20;;;;;;5089420;28;20408;-88